Time;durP1;ratioP1;P1;durP2;ratioP2;P2;SDS_P1;SDS_P2;PMS_P1;PMS_P2;Temp;Humidity;BMP_temperature;BMP_pressure;BME280_temperature;BME280_humidity;BME280_pressure;Samples;Min_cycle;Max_cycle;Signal;HPM_P1;HPM_P2
2022/07/01 00:00:54;;;;;;;8.32;2.47;;;;;;;;;;4304144;33;20518;-68
2022/07/01 00:03:20;;;;;;;5.25;2.25;;;;;;;;;;4304007;33;20138;-68
2022/07/01 00:33:29;;;;;;;4.85;1.70;;;;;;;;;;4839565;27;20098;-76
2022/07/01 00:35:55;;;;;;;4.28;2.28;;;;;;;;;;4304116;33;20507;-76
2022/07/01 00:38:21;;;;;;;6.95;2.00;;;;;;;;;;4304294;33;20579;-76
2022/07/01 00:40:54;;;;;;;8.18;2.22;;;;;;;;;;4290641;33;20519;-76
2022/07/01 00:43:24;;;;;;;2.40;2.00;;;;;;;;;;4304228;33;20108;-67
2022/07/01 00:45:51;;;;;;;12.45;3.20;;;;;;;;;;4290611;33;20115;-70
2022/07/01 00:48:18;;;;;;;4.68;2.35;;;;;;;;;;4290642;33;20088;-74
2022/07/01 00:50:45;;;;;;;2.97;2.05;;;;;;;;;;4278109;33;20522;-74
2022/07/01 00:53:12;;;;;;;4.47;1.87;;;;;;;;;;4304057;33;20534;-73
2022/07/01 00:55:38;;;;;;;3.28;2.15;;;;;;;;;;4308716;33;20172;-73
2022/07/01 00:58:04;;;;;;;5.10;2.35;;;;;;;;;;4308297;33;20219;-74
2022/07/01 01:00:31;;;;;;;2.95;2.10;;;;;;;;;;4308401;33;20209;-73
2022/07/01 01:02:56;;;;;;;6.93;2.05;;;;;;;;;;4308126;33;20114;-74
2022/07/01 01:05:25;;;;;;;7.95;2.10;;;;;;;;;;4308219;33;20135;-68
2022/07/01 01:07:51;;;;;;;4.07;2.22;;;;;;;;;;4308315;33;20526;-67
2022/07/01 01:10:18;;;;;;;6.72;2.80;;;;;;;;;;4308309;33;20216;-69
2022/07/01 01:12:44;;;;;;;5.78;2.50;;;;;;;;;;4308088;33;20115;-68
2022/07/01 01:15:10;;;;;;;6.82;2.72;;;;;;;;;;4308164;33;20138;-68
2022/07/01 01:17:40;;;;;;;5.65;2.75;;;;;;;;;;4294393;33;20115;-68
2022/07/01 01:20:06;;;;;;;11.02;3.03;;;;;;;;;;4307967;33;20122;-67
2022/07/01 01:22:33;;;;;;;5.40;2.20;;;;;;;;;;4307957;33;20116;-68
2022/07/01 01:24:59;;;;;;;6.87;2.22;;;;;;;;;;4294706;33;20470;-68
2022/07/01 01:27:25;;;;;;;2.47;1.65;;;;;;;;;;4308060;33;20125;-69
2022/07/01 01:29:51;;;;;;;4.00;2.08;;;;;;;;;;4308294;33;20537;-68
2022/07/01 01:32:17;;;;;;;6.53;2.30;;;;;;;;;;4308017;33;20127;-69
2022/07/01 01:34:43;;;;;;;10.40;2.60;;;;;;;;;;4307804;33;20107;-69
2022/07/01 01:37:09;;;;;;;2.08;1.08;;;;;;;;;;4307811;33;20118;-69
2022/07/01 01:39:38;;;;;;;1.58;1.35;;;;;;;;;;4294342;33;20550;-69
2022/07/01 01:42:05;;;;;;;6.05;1.98;;;;;;;;;;4307917;33;20593;-66
2022/07/01 01:44:32;;;;;;;3.45;1.20;;;;;;;;;;4307950;33;20503;-66
2022/07/01 01:46:58;;;;;;;2.65;1.85;;;;;;;;;;4294426;33;20116;-67
2022/07/01 01:49:24;;;;;;;8.95;2.65;;;;;;;;;;4307858;33;20130;-67
2022/07/01 01:51:50;;;;;;;3.47;2.08;;;;;;;;;;4307919;33;20115;-66
2022/07/01 01:54:16;;;;;;;4.22;2.25;;;;;;;;;;4308056;33;20134;-67
2022/07/01 01:56:42;;;;;;;1.90;1.40;;;;;;;;;;4307619;33;20118;-67
2022/07/01 01:59:08;;;;;;;1.27;1.17;;;;;;;;;;4307550;33;20302;-67
2022/07/01 02:01:34;;;;;;;1.45;1.35;;;;;;;;;;4307699;33;20230;-67
2022/07/01 02:04:00;;;;;;;3.37;2.00;;;;;;;;;;4307753;33;20111;-67
2022/07/01 02:06:26;;;;;;;6.22;2.50;;;;;;;;;;4305022;33;20440;-67
2022/07/01 02:08:52;;;;;;;7.87;3.80;;;;;;;;;;4292161;33;20100;-67
2022/07/01 02:11:19;;;;;;;16.98;4.35;;;;;;;;;;4304991;33;20459;-67
2022/07/01 02:13:45;;;;;;;10.98;5.65;;;;;;;;;;4305047;33;20202;-67
2022/07/01 02:16:11;;;;;;;16.83;9.02;;;;;;;;;;4305159;33;20119;-66
2022/07/01 02:18:37;;;;;;;14.40;7.95;;;;;;;;;;4305007;33;20102;-66
2022/07/01 02:21:04;;;;;;;43.78;17.08;;;;;;;;;;4304924;33;20143;-67
2022/07/01 02:23:30;;;;;;;46.25;16.85;;;;;;;;;;4305044;33;20546;-67
2022/07/01 02:25:56;;;;;;;44.55;13.70;;;;;;;;;;4305136;33;20134;-68
2022/07/01 02:28:22;;;;;;;27.98;6.90;;;;;;;;;;4305248;33;20170;-67
2022/07/01 02:30:48;;;;;;;11.50;4.20;;;;;;;;;;4304911;33;20210;-67
2022/07/01 02:33:13;;;;;;;12.48;4.87;;;;;;;;;;4304769;33;20123;-66
2022/07/01 02:35:40;;;;;;;11.88;3.42;;;;;;;;;;4291423;33;20538;-66
2022/07/01 02:38:10;;;;;;;8.90;2.97;;;;;;;;;;4291339;33;20514;-67
2022/07/01 02:40:40;;;;;;;11.38;3.47;;;;;;;;;;4304808;33;20154;-67
2022/07/01 02:43:07;;;;;;;5.45;2.35;;;;;;;;;;4291835;33;20138;-67
2022/07/01 02:45:33;;;;;;;5.20;2.20;;;;;;;;;;4291558;33;20091;-67
2022/07/01 02:48:01;;;;;;;9.65;2.30;;;;;;;;;;4291253;33;20600;-67
2022/07/01 02:50:28;;;;;;;6.05;2.28;;;;;;;;;;4304935;33;20109;-68
2022/07/01 02:52:54;;;;;;;8.55;2.90;;;;;;;;;;4304639;33;20689;-67
2022/07/01 02:55:20;;;;;;;5.30;2.42;;;;;;;;;;4304554;33;20131;-67
2022/07/01 02:57:49;;;;;;;5.85;2.55;;;;;;;;;;4304781;33;20106;-67
2022/07/01 03:00:15;;;;;;;4.45;3.03;;;;;;;;;;4291499;33;20553;-67
2022/07/01 03:02:41;;;;;;;5.53;2.80;;;;;;;;;;4291090;33;20542;-67
2022/07/01 03:05:08;;;;;;;4.35;2.58;;;;;;;;;;4267428;33;20138;-67
2022/07/01 03:07:38;;;;;;;6.15;2.67;;;;;;;;;;4304397;33;20515;-67
2022/07/01 03:10:05;;;;;;;6.12;2.75;;;;;;;;;;4291221;33;20127;-68
2022/07/01 03:12:34;;;;;;;4.80;2.83;;;;;;;;;;4304774;33;20527;-69
2022/07/01 03:15:08;;;;;;;8.82;2.40;;;;;;;;;;4290987;33;20496;-68
2022/07/01 03:17:36;;;;;;;3.60;1.90;;;;;;;;;;4290873;33;20119;-69
2022/07/01 03:20:03;;;;;;;2.62;1.90;;;;;;;;;;4304420;33;20161;-68
2022/07/01 03:22:30;;;;;;;3.03;2.45;;;;;;;;;;4304641;33;20432;-68
2022/07/01 03:24:57;;;;;;;3.60;2.20;;;;;;;;;;4290968;33;20521;-68
2022/07/01 03:27:23;;;;;;;3.60;2.12;;;;;;;;;;4304296;33;20467;-68
2022/07/01 03:29:50;;;;;;;2.90;1.80;;;;;;;;;;4304362;33;20181;-68
2022/07/01 03:32:16;;;;;;;3.85;1.98;;;;;;;;;;4286379;33;20484;-66
2022/07/01 03:34:45;;;;;;;5.43;2.12;;;;;;;;;;4275390;33;20524;-66
2022/07/01 03:37:12;;;;;;;3.97;2.35;;;;;;;;;;4275470;33;20092;-66
2022/07/01 03:39:38;;;;;;;2.28;2.00;;;;;;;;;;4287946;33;20191;-66
2022/07/01 03:42:05;;;;;;;3.95;2.40;;;;;;;;;;4289762;33;20523;-66
2022/07/01 03:44:32;;;;;;;4.80;2.05;;;;;;;;;;4289389;33;20219;-67
2022/07/01 03:46:59;;;;;;;7.05;2.10;;;;;;;;;;4288436;33;20107;-66
2022/07/01 03:49:25;;;;;;;4.55;1.90;;;;;;;;;;4285700;33;20104;-62
2022/07/01 03:51:51;;;;;;;2.65;1.87;;;;;;;;;;4283309;33;20099;-65
2022/07/01 03:54:30;;;;;;;2.65;1.90;;;;;;;;;;4288481;33;20107;-65
2022/07/01 03:57:02;;;;;;;3.72;2.00;;;;;;;;;;4282776;33;20471;-65
2022/07/01 03:59:30;;;;;;;3.22;2.08;;;;;;;;;;4275242;33;20519;-67
2022/07/01 04:01:57;;;;;;;2.83;2.15;;;;;;;;;;4274968;33;20096;-62
2022/07/01 04:04:24;;;;;;;2.90;1.70;;;;;;;;;;4280238;33;20116;-63
2022/07/01 04:06:50;;;;;;;2.80;1.90;;;;;;;;;;4281720;33;20187;-65
2022/07/01 04:09:17;;;;;;;2.60;2.05;;;;;;;;;;4289207;33;20593;-66
2022/07/01 04:11:43;;;;;;;1.98;1.60;;;;;;;;;;4289346;33;20160;-66
2022/07/01 04:14:10;;;;;;;3.37;2.10;;;;;;;;;;4289463;33;20108;-69
2022/07/01 04:16:36;;;;;;;2.87;1.90;;;;;;;;;;4287502;33;20110;-71
2022/07/01 04:19:06;;;;;;;2.90;1.83;;;;;;;;;;4289136;33;20527;-71
2022/07/01 04:24:32;;;;;;;4.82;1.70;;;;;;;;;;4287804;33;20127;-70
2022/07/01 04:26:59;;;;;;;1.73;1.62;;;;;;;;;;4275917;33;20533;-68
2022/07/01 04:29:25;;;;;;;2.30;1.80;;;;;;;;;;4288824;33;20111;-69
2022/07/01 04:31:51;;;;;;;3.55;2.35;;;;;;;;;;4275798;33;20142;-69
2022/07/01 04:34:18;;;;;;;2.95;1.95;;;;;;;;;;4288984;33;20135;-67
2022/07/01 04:36:44;;;;;;;3.53;1.70;;;;;;;;;;4289063;33;20091;-69
2022/07/01 04:39:10;;;;;;;3.30;1.85;;;;;;;;;;4275832;33;20120;-66
2022/07/01 04:44:20;;;;;;;2.30;1.95;;;;;;;;;;4289152;33;20194;-68
2022/07/01 04:47:04;;;;;;;6.43;2.20;;;;;;;;;;4289126;33;20291;-67
2022/07/01 04:49:31;;;;;;;2.87;1.87;;;;;;;;;;4289520;33;20187;-68
2022/07/01 04:51:57;;;;;;;2.75;1.70;;;;;;;;;;4275913;33;20448;-66
2022/07/01 04:54:25;;;;;;;3.05;1.98;;;;;;;;;;4275919;33;20817;-67
2022/07/01 04:56:52;;;;;;;3.92;1.98;;;;;;;;;;4288912;33;20515;-67
2022/07/01 04:59:19;;;;;;;3.28;1.87;;;;;;;;;;4275827;33;20108;-67
2022/07/01 05:01:48;;;;;;;8.48;1.90;;;;;;;;;;4288956;33;20116;-67
2022/07/01 05:04:15;;;;;;;3.30;1.85;;;;;;;;;;4289004;33;20440;-67
2022/07/01 05:06:41;;;;;;;2.50;1.98;;;;;;;;;;4288906;33;20127;-67
2022/07/01 05:09:07;;;;;;;3.40;2.00;;;;;;;;;;4288901;33;20132;-67
2022/07/01 05:11:33;;;;;;;2.53;2.30;;;;;;;;;;4275700;33;20215;-67
2022/07/01 05:14:00;;;;;;;3.87;2.28;;;;;;;;;;4275601;33;20115;-66
2022/07/01 05:16:26;;;;;;;3.33;2.25;;;;;;;;;;4288713;33;20207;-67
2022/07/01 05:24:22;;;;;;;2.58;1.90;;;;;;;;;;4288886;33;20432;-67
2022/07/01 05:26:48;;;;;;;2.95;2.10;;;;;;;;;;4288783;33;20100;-68
2022/07/01 05:29:15;;;;;;;5.15;2.30;;;;;;;;;;4288903;33;20122;-66
2022/07/01 05:31:41;;;;;;;1.90;1.73;;;;;;;;;;4288620;33;20215;-67
2022/07/01 05:34:07;;;;;;;3.83;1.90;;;;;;;;;;4288613;33;20108;-67
2022/07/01 05:36:34;;;;;;;2.75;1.92;;;;;;;;;;4288570;33;20119;-66
2022/07/01 05:39:00;;;;;;;5.60;2.45;;;;;;;;;;4288558;33;20106;-67
2022/07/01 05:41:27;;;;;;;2.50;2.17;;;;;;;;;;4289833;33;20127;-67
2022/07/01 05:43:53;;;;;;;5.05;2.40;;;;;;;;;;4290903;33;20097;-67
2022/07/01 05:46:19;;;;;;;4.90;2.15;;;;;;;;;;4290777;33;20479;-65
2022/07/01 05:48:45;;;;;;;3.17;2.12;;;;;;;;;;4290795;33;20107;-67
2022/07/01 05:51:11;;;;;;;4.87;2.40;;;;;;;;;;4290764;33;20116;-67
2022/07/01 05:53:37;;;;;;;12.50;2.78;;;;;;;;;;4290540;33;20099;-67
2022/07/01 05:56:03;;;;;;;10.43;2.37;;;;;;;;;;4290575;33;20222;-67
2022/07/01 05:58:29;;;;;;;3.22;2.40;;;;;;;;;;4290878;33;20093;-67
2022/07/01 06:00:55;;;;;;;7.00;2.65;;;;;;;;;;4290738;33;20123;-68
2022/07/01 06:03:22;;;;;;;4.53;2.22;;;;;;;;;;4290702;33;20099;-66
2022/07/01 06:05:48;;;;;;;5.25;2.30;;;;;;;;;;4290632;33;20210;-67
2022/07/01 06:08:14;;;;;;;2.72;2.20;;;;;;;;;;4290681;33;20138;-66
2022/07/01 06:10:39;;;;;;;2.62;2.30;;;;;;;;;;4290538;33;20122;-66
2022/07/01 06:13:06;;;;;;;5.62;2.62;;;;;;;;;;4290704;33;20550;-66
2022/07/01 06:15:32;;;;;;;4.22;2.58;;;;;;;;;;4290488;33;20142;-64
2022/07/01 06:17:59;;;;;;;3.53;2.40;;;;;;;;;;4265335;33;20092;-63
2022/07/01 06:20:25;;;;;;;2.87;2.15;;;;;;;;;;4290414;33;20130;-63
2022/07/01 06:22:51;;;;;;;3.70;2.47;;;;;;;;;;4290328;33;20111;-63
2022/07/01 06:25:18;;;;;;;4.85;2.30;;;;;;;;;;4290408;33;20107;-65
2022/07/01 06:27:45;;;;;;;3.90;2.40;;;;;;;;;;4290291;33;20612;-68
2022/07/01 06:30:12;;;;;;;4.47;2.62;;;;;;;;;;4290555;33;20122;-67
2022/07/01 06:32:38;;;;;;;5.12;2.72;;;;;;;;;;4290356;33;20103;-66
2022/07/01 06:35:05;;;;;;;5.35;2.37;;;;;;;;;;4290233;33;20107;-65
2022/07/01 06:37:33;;;;;;;3.42;2.20;;;;;;;;;;4290455;33;20564;-67
2022/07/01 06:40:00;;;;;;;4.30;2.37;;;;;;;;;;4290553;33;20100;-65
2022/07/01 06:42:26;;;;;;;3.40;2.40;;;;;;;;;;4290296;33;20116;-66
2022/07/01 06:44:52;;;;;;;2.40;2.10;;;;;;;;;;4290219;33;20195;-65
2022/07/01 06:47:18;;;;;;;2.45;2.22;;;;;;;;;;4290148;33;20127;-66
2022/07/01 06:49:45;;;;;;;2.55;2.03;;;;;;;;;;4290449;33;20127;-66
2022/07/01 06:52:11;;;;;;;2.72;2.33;;;;;;;;;;4289676;33;20466;-64
2022/07/01 06:54:37;;;;;;;4.97;2.37;;;;;;;;;;4290144;33;20530;-66
2022/07/01 06:57:06;;;;;;;4.75;2.40;;;;;;;;;;4290012;33;20561;-61
2022/07/01 06:59:33;;;;;;;4.62;2.40;;;;;;;;;;4290271;33;20108;-61
2022/07/01 07:01:59;;;;;;;4.80;2.40;;;;;;;;;;4289997;33;20535;-62
2022/07/01 07:04:25;;;;;;;9.05;3.40;;;;;;;;;;4290075;33;20111;-62
2022/07/01 07:06:51;;;;;;;4.20;2.62;;;;;;;;;;4290013;33;20135;-61
2022/07/01 07:09:17;;;;;;;3.53;2.72;;;;;;;;;;4290045;33;20119;-65
2022/07/01 07:11:43;;;;;;;4.90;2.80;;;;;;;;;;4290004;33;20121;-62
2022/07/01 07:14:09;;;;;;;3.50;2.78;;;;;;;;;;4289883;33;20107;-63
2022/07/01 07:16:35;;;;;;;4.35;3.10;;;;;;;;;;4289923;33;20131;-61
2022/07/01 07:19:01;;;;;;;4.87;3.22;;;;;;;;;;4289925;33;20108;-64
2022/07/01 07:21:27;;;;;;;6.43;3.25;;;;;;;;;;4289977;33;20622;-63
2022/07/01 07:23:53;;;;;;;3.75;2.50;;;;;;;;;;4289846;33;20091;-62
2022/07/01 07:26:19;;;;;;;4.12;3.10;;;;;;;;;;4290000;33;20613;-63
2022/07/01 07:28:45;;;;;;;3.60;2.87;;;;;;;;;;4289989;33;20124;-64
2022/07/01 07:31:11;;;;;;;7.53;3.47;;;;;;;;;;4289764;33;20120;-64
2022/07/01 07:33:37;;;;;;;4.78;3.33;;;;;;;;;;4289659;33;20134;-63
2022/07/01 07:36:03;;;;;;;6.30;3.85;;;;;;;;;;4289759;33;20107;-63
2022/07/01 07:38:29;;;;;;;4.15;3.72;;;;;;;;;;4289782;33;20162;-63
2022/07/01 07:40:55;;;;;;;4.30;3.55;;;;;;;;;;4289807;33;20264;-64
2022/07/01 07:43:21;;;;;;;6.47;4.18;;;;;;;;;;4290001;33;20679;-64
2022/07/01 07:45:47;;;;;;;7.87;4.28;;;;;;;;;;4289759;33;20694;-68
2022/07/01 07:48:13;;;;;;;4.72;4.20;;;;;;;;;;4289878;33;20103;-65
2022/07/01 07:50:40;;;;;;;4.78;4.15;;;;;;;;;;4276563;33;20475;-65
2022/07/01 07:53:07;;;;;;;11.50;5.30;;;;;;;;;;4289658;33;20119;-65
2022/07/01 07:55:33;;;;;;;5.65;5.00;;;;;;;;;;4289589;33;20107;-65
2022/07/01 07:57:59;;;;;;;5.45;4.18;;;;;;;;;;4276158;33;20110;-65
2022/07/01 08:00:25;;;;;;;6.53;4.82;;;;;;;;;;4289924;33;20508;-67
2022/07/01 08:02:51;;;;;;;6.78;4.20;;;;;;;;;;4288877;33;20533;-67
2022/07/01 08:05:17;;;;;;;4.95;4.45;;;;;;;;;;4289411;33;20131;-67
2022/07/01 08:07:44;;;;;;;4.90;4.30;;;;;;;;;;4289600;33;20108;-69
2022/07/01 08:10:12;;;;;;;8.90;4.07;;;;;;;;;;4289691;33;20182;-69
2022/07/01 08:12:38;;;;;;;4.87;4.40;;;;;;;;;;4289611;33;20115;-69
2022/07/01 08:15:05;;;;;;;4.82;4.10;;;;;;;;;;4289412;33;20553;-69
2022/07/01 08:17:31;;;;;;;4.47;3.97;;;;;;;;;;4289312;33;20116;-68
2022/07/01 08:19:57;;;;;;;4.85;4.35;;;;;;;;;;4276047;33;20096;-68
2022/07/01 08:22:24;;;;;;;4.80;4.12;;;;;;;;;;4289448;33;20127;-66
2022/07/01 08:24:50;;;;;;;5.30;4.50;;;;;;;;;;4289291;33;20587;-66
2022/07/01 08:27:16;;;;;;;5.22;4.25;;;;;;;;;;4289473;33;20142;-71
2022/07/01 08:29:42;;;;;;;6.78;4.60;;;;;;;;;;4289508;33;20092;-67
2022/07/01 08:32:08;;;;;;;8.85;4.75;;;;;;;;;;4289431;33;20135;-67
2022/07/01 08:34:35;;;;;;;4.45;3.80;;;;;;;;;;4289066;33;20111;-67
2022/07/01 08:37:02;;;;;;;5.62;4.30;;;;;;;;;;4289095;33;20204;-67
2022/07/01 08:39:29;;;;;;;5.57;4.65;;;;;;;;;;4289356;33;20103;-66
2022/07/01 08:41:55;;;;;;;5.68;4.60;;;;;;;;;;4289239;33;20127;-67
2022/07/01 08:44:22;;;;;;;5.93;5.35;;;;;;;;;;4289232;33;20641;-67
2022/07/01 08:46:48;;;;;;;7.15;5.00;;;;;;;;;;4289134;33;20626;-69
2022/07/01 08:49:16;;;;;;;7.15;5.10;;;;;;;;;;4289228;33;20531;-69
2022/07/01 08:51:42;;;;;;;6.25;5.45;;;;;;;;;;4289023;33;20111;-67
2022/07/01 08:54:08;;;;;;;5.78;4.87;;;;;;;;;;4288972;33;20117;-68
2022/07/01 08:56:45;;;;;;;5.78;5.18;;;;;;;;;;4288953;33;20482;-69
2022/07/01 08:59:31;;;;;;;14.35;6.57;;;;;;;;;;4277149;33;20116;-67
2022/07/01 09:02:05;;;;;;;6.32;5.43;;;;;;;;;;4289043;33;20127;-68
2022/07/01 09:04:31;;;;;;;5.70;5.20;;;;;;;;;;4289095;33;20184;-71
2022/07/01 09:07:04;;;;;;;4.05;3.20;;;;;;;;;;4288968;33;20124;-71
2022/07/01 09:09:34;;;;;;;6.05;4.47;;;;;;;;;;4288819;33;20108;-71
2022/07/01 09:12:00;;;;;;;10.98;4.78;;;;;;;;;;4288896;33;20180;-70
2022/07/01 09:14:33;;;;;;;4.53;4.12;;;;;;;;;;4275909;33;20163;-69
2022/07/01 09:17:05;;;;;;;5.15;4.07;;;;;;;;;;4266012;33;20638;-70
2022/07/01 09:19:36;;;;;;;4.72;4.22;;;;;;;;;;4277655;33;20107;-71
2022/07/01 09:22:04;;;;;;;4.62;3.67;;;;;;;;;;4291129;33;20206;-70
2022/07/01 09:24:42;;;;;;;6.18;3.78;;;;;;;;;;4290961;33;20119;-71
2022/07/01 09:27:13;;;;;;;5.35;3.80;;;;;;;;;;4290943;33;20111;-69
2022/07/01 09:29:42;;;;;;;4.70;4.30;;;;;;;;;;4291020;33;20103;-71
2022/07/01 09:32:10;;;;;;;5.53;4.82;;;;;;;;;;4290908;33;20108;-70
2022/07/01 09:34:48;;;;;;;3.92;3.50;;;;;;;;;;4290990;33;20166;-71
2022/07/01 09:37:16;;;;;;;6.15;3.97;;;;;;;;;;4290731;33;20207;-70
2022/07/01 09:39:46;;;;;;;6.47;4.00;;;;;;;;;;4291002;33;20195;-72
2022/07/01 09:42:12;;;;;;;5.32;3.70;;;;;;;;;;4290719;33;20462;-69
2022/07/01 09:45:07;;;;;;;5.45;3.90;;;;;;;;;;4290753;33;20125;-68
2022/07/01 09:47:35;;;;;;;5.15;3.87;;;;;;;;;;4277717;33;20107;-67
2022/07/01 09:50:06;;;;;;;5.68;3.90;;;;;;;;;;4290763;33;20513;-68
2022/07/01 09:52:32;;;;;;;6.72;3.92;;;;;;;;;;4290700;33;20115;-67
2022/07/01 09:54:58;;;;;;;6.05;3.70;;;;;;;;;;4290560;33;20106;-67
2022/07/01 09:57:24;;;;;;;6.20;3.87;;;;;;;;;;4290858;33;20120;-67
2022/07/01 09:59:51;;;;;;;4.40;3.92;;;;;;;;;;4290644;33;20165;-67
2022/07/01 10:02:21;;;;;;;5.18;3.65;;;;;;;;;;4290684;33;20218;-68
2022/07/01 10:04:54;;;;;;;4.40;3.28;;;;;;;;;;4290542;33;20124;-67
2022/07/01 10:07:49;;;;;;;6.68;3.42;;;;;;;;;;4277219;33;20108;-67
2022/07/01 10:10:37;;;;;;;5.15;3.55;;;;;;;;;;4277253;33;20510;-66
2022/07/01 10:13:03;;;;;;;3.87;3.20;;;;;;;;;;4290480;33;20559;-67
2022/07/01 10:15:29;;;;;;;8.30;3.35;;;;;;;;;;4290396;33;20471;-67
2022/07/01 10:17:56;;;;;;;4.82;3.30;;;;;;;;;;4290385;33;20222;-68
2022/07/01 10:20:27;;;;;;;4.87;3.10;;;;;;;;;;4290601;33;20475;-68
2022/07/01 10:23:06;;;;;;;3.47;3.00;;;;;;;;;;4290460;33;20477;-68
2022/07/01 10:25:43;;;;;;;4.87;2.33;;;;;;;;;;4290421;33;20474;-69
2022/07/01 10:28:47;;;;;;;2.50;2.28;;;;;;;;;;4290091;33;20139;-68
2022/07/01 10:31:17;;;;;;;3.95;2.22;;;;;;;;;;4290512;33;20115;-68
2022/07/01 10:33:47;;;;;;;5.20;2.33;;;;;;;;;;4290335;33;20468;-68
2022/07/01 10:36:19;;;;;;;4.37;2.20;;;;;;;;;;4290283;33;20464;-68
2022/07/01 10:39:00;;;;;;;3.35;2.20;;;;;;;;;;4290250;33;20516;-66
2022/07/01 10:41:27;;;;;;;2.55;2.00;;;;;;;;;;4290212;33;20527;-65
2022/07/01 10:43:54;;;;;;;2.17;1.98;;;;;;;;;;4276671;33;20547;-66
2022/07/01 10:46:58;;;;;;;2.22;1.90;;;;;;;;;;4290223;33;20531;-67
2022/07/01 10:49:51;;;;;;;2.12;1.92;;;;;;;;;;4290399;33;20127;-66
2022/07/01 10:52:18;;;;;;;3.90;2.20;;;;;;;;;;4287781;33;20194;-66
2022/07/01 10:54:48;;;;;;;2.40;1.90;;;;;;;;;;4290348;33;20127;-66
2022/07/01 10:57:19;;;;;;;7.85;2.20;;;;;;;;;;4289990;33;20107;-65
2022/07/01 10:59:50;;;;;;;1.85;1.70;;;;;;;;;;4290191;33;20120;-66
2022/07/01 11:02:20;;;;;;;5.72;2.30;;;;;;;;;;4290127;33;20138;-64
2022/07/01 11:04:47;;;;;;;3.08;2.42;;;;;;;;;;4265166;33;20522;-76
2022/07/01 11:07:13;;;;;;;2.92;2.37;;;;;;;;;;4278026;33;20122;-75
2022/07/01 11:09:39;;;;;;;4.20;2.42;;;;;;;;;;4290835;33;20099;-73
2022/07/01 11:12:06;;;;;;;11.80;4.00;;;;;;;;;;4290476;33;20213;-71
2022/07/01 11:14:39;;;;;;;7.55;3.10;;;;;;;;;;4290156;33;20190;-73
2022/07/01 11:17:06;;;;;;;7.20;3.58;;;;;;;;;;4290844;33;20205;-74
2022/07/01 11:19:32;;;;;;;8.68;3.20;;;;;;;;;;4290282;33;20568;-75
2022/07/01 11:21:58;;;;;;;9.32;3.55;;;;;;;;;;4290211;33;20454;-74
2022/07/01 11:24:25;;;;;;;19.73;4.90;;;;;;;;;;4290543;33;20123;-74
2022/07/01 11:26:56;;;;;;;10.80;4.97;;;;;;;;;;4290385;33;20096;-75
2022/07/01 11:29:26;;;;;;;7.80;4.00;;;;;;;;;;4290382;33;20112;-75
2022/07/01 11:31:52;;;;;;;5.70;3.60;;;;;;;;;;4290751;33;20115;-74
2022/07/01 11:34:19;;;;;;;6.53;4.18;;;;;;;;;;4290235;33;20225;-74
2022/07/01 11:39:34;;;;;;;7.95;4.07;;;;;;;;;;4290316;33;20208;-74
2022/07/01 11:42:04;;;;;;;14.75;4.60;;;;;;;;;;4289973;33;20092;-71
2022/07/01 11:44:37;;;;;;;12.40;6.85;;;;;;;;;;4289703;33;20202;-69
2022/07/01 11:47:23;;;;;;;14.77;6.45;;;;;;;;;;4276420;33;20123;-71
2022/07/01 11:49:49;;;;;;;6.80;5.37;;;;;;;;;;4276622;33;20120;-70
2022/07/01 11:52:17;;;;;;;7.22;4.85;;;;;;;;;;4276429;33;20130;-74
2022/07/01 11:54:50;;;;;;;10.27;4.70;;;;;;;;;;4289744;33;20516;-71
2022/07/01 11:57:18;;;;;;;6.62;4.55;;;;;;;;;;4289655;33;20478;-71
2022/07/01 11:59:46;;;;;;;6.18;4.03;;;;;;;;;;4289628;33;20127;-75
2022/07/01 12:02:13;;;;;;;6.78;3.92;;;;;;;;;;4289919;33;20091;-71
2022/07/01 12:04:42;;;;;;;8.75;4.47;;;;;;;;;;4289604;33;20120;-72
2022/07/01 12:07:10;;;;;;;5.70;3.67;;;;;;;;;;4289476;33;20108;-72
2022/07/01 12:09:36;;;;;;;7.10;3.60;;;;;;;;;;4289439;33;20106;-72
2022/07/01 12:12:02;;;;;;;11.88;5.05;;;;;;;;;;4289951;33;20131;-72
2022/07/01 12:14:30;;;;;;;8.38;4.07;;;;;;;;;;4289585;33;20104;-72
2022/07/01 12:16:58;;;;;;;10.25;4.75;;;;;;;;;;4289500;33;20106;-69
2022/07/01 12:19:40;;;;;;;10.00;5.15;;;;;;;;;;4289538;33;20127;-76
2022/07/01 12:22:09;;;;;;;16.40;5.65;;;;;;;;;;4289549;33;20574;-73
2022/07/01 12:24:35;;;;;;;10.77;4.80;;;;;;;;;;4289657;33;20081;-74
2022/07/01 12:27:06;;;;;;;6.45;3.58;;;;;;;;;;4289741;33;20210;-74
2022/07/01 12:29:47;;;;;;;15.85;10.43;;;;;;;;;;4289396;33;20092;-74
2022/07/01 12:32:14;;;;;;;9.65;5.45;;;;;;;;;;4289680;33;20095;-74
2022/07/01 12:34:45;;;;;;;16.52;8.18;;;;;;;;;;4276026;33;20119;-70
2022/07/01 12:37:17;;;;;;;20.85;9.65;;;;;;;;;;4289091;33;20091;-70
2022/07/01 12:39:56;;;;;;;14.63;7.10;;;;;;;;;;4289584;33;20535;-70
2022/07/01 12:42:33;;;;;;;12.85;4.97;;;;;;;;;;4289190;33;20447;-69
2022/07/01 12:45:04;;;;;;;9.23;4.47;;;;;;;;;;4289372;33;20131;-70
2022/07/01 12:47:32;;;;;;;10.38;5.20;;;;;;;;;;4289356;33;20198;-69
2022/07/01 12:50:10;;;;;;;14.15;6.55;;;;;;;;;;4275414;33;20127;-71
2022/07/01 12:52:37;;;;;;;13.95;6.78;;;;;;;;;;4289269;33;20127;-71
2022/07/01 12:55:17;;;;;;;20.15;8.65;;;;;;;;;;4289179;33;20088;-69
2022/07/01 12:57:43;;;;;;;13.82;5.25;;;;;;;;;;4289040;33;20100;-70
2022/07/01 13:00:09;;;;;;;13.90;4.80;;;;;;;;;;4289089;33;20207;-71
2022/07/01 13:02:35;;;;;;;16.33;4.55;;;;;;;;;;4288955;33;20096;-71
2022/07/01 13:05:01;;;;;;;8.52;4.03;;;;;;;;;;4288966;33;20104;-72
2022/07/01 13:07:27;;;;;;;12.25;5.07;;;;;;;;;;4288956;33;20102;-70
2022/07/01 13:09:53;;;;;;;8.05;3.72;;;;;;;;;;4288960;33;20108;-71
2022/07/01 13:12:19;;;;;;;10.95;4.97;;;;;;;;;;4288963;33;20131;-71
2022/07/01 13:14:45;;;;;;;16.37;7.40;;;;;;;;;;4275365;33;20230;-71
2022/07/01 13:17:11;;;;;;;13.85;6.20;;;;;;;;;;4289015;33;20531;-72
2022/07/01 13:19:37;;;;;;;7.60;3.75;;;;;;;;;;4289662;33;20115;-72
2022/07/01 13:22:05;;;;;;;7.40;3.62;;;;;;;;;;4289019;33;20214;-72
2022/07/01 13:24:31;;;;;;;13.25;4.28;;;;;;;;;;4275584;33;20115;-75
2022/07/01 13:26:57;;;;;;;5.25;2.92;;;;;;;;;;4288746;33;20147;-69
2022/07/01 13:29:23;;;;;;;6.65;2.58;;;;;;;;;;4288815;33;20520;-71
2022/07/01 13:31:49;;;;;;;3.55;2.25;;;;;;;;;;4288937;33;20233;-73
2022/07/01 13:34:15;;;;;;;3.60;2.50;;;;;;;;;;4288462;33;20175;-77
2022/07/01 13:36:41;;;;;;;4.82;3.08;;;;;;;;;;4288991;33;20199;-72
2022/07/01 13:39:08;;;;;;;12.60;2.97;;;;;;;;;;4288707;33;20096;-72
2022/07/01 13:41:35;;;;;;;3.33;2.70;;;;;;;;;;4288896;33;20119;-73
2022/07/01 13:44:01;;;;;;;6.28;2.90;;;;;;;;;;4288569;33;20130;-72
2022/07/01 13:46:27;;;;;;;5.40;2.70;;;;;;;;;;4275176;33;20133;-71
2022/07/01 13:48:53;;;;;;;5.70;2.40;;;;;;;;;;4275119;33;20203;-71
2022/07/01 13:51:19;;;;;;;7.45;3.15;;;;;;;;;;4288695;33;20218;-73
2022/07/01 13:53:45;;;;;;;6.28;2.83;;;;;;;;;;4288301;33;20135;-69
2022/07/01 13:56:11;;;;;;;7.35;2.90;;;;;;;;;;4288211;33;20524;-69
2022/07/01 13:58:37;;;;;;;7.55;3.05;;;;;;;;;;4288542;33;20209;-69
2022/07/01 14:01:03;;;;;;;6.20;2.92;;;;;;;;;;4288463;33;20120;-68
2022/07/01 14:03:29;;;;;;;3.55;2.45;;;;;;;;;;4290623;33;20455;-70
2022/07/01 14:05:55;;;;;;;2.58;1.98;;;;;;;;;;4290635;33;20699;-71
2022/07/01 14:08:21;;;;;;;5.18;2.40;;;;;;;;;;4290811;33;20130;-70
2022/07/01 14:10:48;;;;;;;3.95;2.83;;;;;;;;;;4290674;33;20196;-72
2022/07/01 14:13:14;;;;;;;4.18;2.25;;;;;;;;;;4290639;33;20107;-71
2022/07/01 14:15:40;;;;;;;5.87;2.30;;;;;;;;;;4290693;33;20115;-71
2022/07/01 14:18:06;;;;;;;4.50;1.92;;;;;;;;;;4290421;33;20429;-73
2022/07/01 14:20:32;;;;;;;10.02;2.35;;;;;;;;;;4290571;33;20466;-71
2022/07/01 14:22:58;;;;;;;3.78;2.30;;;;;;;;;;4290403;33;20119;-70
2022/07/01 14:25:24;;;;;;;4.87;2.12;;;;;;;;;;4290614;33;20612;-71
2022/07/01 14:27:50;;;;;;;4.47;2.37;;;;;;;;;;4290577;33;20517;-71
2022/07/01 14:30:16;;;;;;;2.67;2.08;;;;;;;;;;4290513;33;20123;-71
2022/07/01 14:32:42;;;;;;;5.30;2.30;;;;;;;;;;4290323;33;20103;-68
2022/07/01 14:35:09;;;;;;;4.05;2.20;;;;;;;;;;4290274;33;20108;-69
2022/07/01 14:37:37;;;;;;;5.10;2.70;;;;;;;;;;4290423;33;20199;-71
2022/07/01 14:40:04;;;;;;;2.87;1.95;;;;;;;;;;4277060;33;20126;-70
2022/07/01 14:42:30;;;;;;;6.47;2.65;;;;;;;;;;4290327;33;20092;-70
2022/07/01 14:44:56;;;;;;;6.95;2.53;;;;;;;;;;4276872;33;20641;-69
2022/07/01 14:47:23;;;;;;;5.32;2.58;;;;;;;;;;4276923;33;20115;-69
2022/07/01 14:49:51;;;;;;;4.15;2.35;;;;;;;;;;4290430;33;20122;-69
2022/07/01 14:52:17;;;;;;;4.57;2.85;;;;;;;;;;4290057;33;20561;-69
2022/07/01 14:54:44;;;;;;;5.37;2.90;;;;;;;;;;4277002;33;20439;-69
2022/07/01 14:57:10;;;;;;;3.20;2.90;;;;;;;;;;4290039;33;20119;-68
2022/07/01 14:59:36;;;;;;;4.68;3.05;;;;;;;;;;4290326;33;20125;-69
2022/07/01 15:02:03;;;;;;;5.93;3.10;;;;;;;;;;4290097;33;20115;-70
2022/07/01 15:04:33;;;;;;;5.65;3.08;;;;;;;;;;4287695;33;20143;-68
2022/07/01 15:06:59;;;;;;;4.57;2.75;;;;;;;;;;4275780;33;20123;-73
2022/07/01 15:09:25;;;;;;;6.20;3.03;;;;;;;;;;4276007;33;20227;-71
2022/07/01 15:11:52;;;;;;;4.80;3.28;;;;;;;;;;4275615;33;20187;-69
2022/07/01 15:14:18;;;;;;;9.00;3.08;;;;;;;;;;4275294;33;20098;-68
2022/07/01 15:16:44;;;;;;;5.72;2.53;;;;;;;;;;4275549;33;20116;-70
2022/07/01 15:19:11;;;;;;;4.25;1.85;;;;;;;;;;4275772;33;20479;-70
2022/07/01 15:21:37;;;;;;;4.37;2.45;;;;;;;;;;4275474;33;20626;-67
2022/07/01 15:24:03;;;;;;;3.85;2.10;;;;;;;;;;4275461;33;20120;-70
2022/07/01 15:26:30;;;;;;;2.60;2.12;;;;;;;;;;4262490;33;20128;-69